May, Texas
Current Conditions -  °F | °C
As of 2:35 PM on Monday 26 Jan 2015 (Local Time) from KBWD Reporting Station
Clear Clear  
Wind Chill: 73°   Ceiling: Unl
Heat Index: 73°   Visibility: 10mi
Dew Point: 32°   Wind: 13mph
Humidity: 22%   Direction: 250°WSW
Pressure: 30.17"   Gusts: 18mph
Location:  31.98°N, 98.92°W
Report Text: KBWD 262035Z AUTO 25011G16KT 10SM CLR 23/00 A3017 RMK AO2
Loading
Personal Weather Stations






























Interactive Weather Map New forecast layout! Learn more

10-Day Weather Forecast

Advertisements
Track Severe Weather on mobile